Time;durP1;ratioP1;P1;durP2;ratioP2;P2;SDS_P1;SDS_P2;PMS_P1;PMS_P2;Temp;Humidity;BMP_temperature;BMP_pressure;BME280_temperature;BME280_humidity;BME280_pressure;Samples;Min_cycle;Max_cycle;Signal;HPM_P1;HPM_P2
2022/10/27 00:01:35;;;;;;;40.07;21.20;;;8.40;99.90;;;;;;6309287;22;20164;-81
2022/10/27 00:04:03;;;;;;;39.47;21.67;;;8.40;99.90;;;;;;6308583;22;20213;-82
2022/10/27 00:06:30;;;;;;;36.77;21.17;;;8.30;99.90;;;;;;6256144;22;20346;-81
2022/10/27 00:08:57;;;;;;;42.23;22.27;;;8.20;99.90;;;;;;6280679;22;20203;-81
2022/10/27 00:11:24;;;;;;;42.50;22.53;;;8.10;99.90;;;;;;6281569;22;20159;-81
2022/10/27 00:13:51;;;;;;;41.73;23.17;;;8.10;99.90;;;;;;6308367;22;20251;-80
2022/10/27 00:16:18;;;;;;;44.63;23.70;;;8.10;99.90;;;;;;6281265;22;20173;-80
2022/10/27 00:18:45;;;;;;;47.10;24.80;;;8.10;99.90;;;;;;6308159;22;20514;-81
2022/10/27 00:21:18;;;;;;;44.87;24.90;;;8.10;99.90;;;;;;6255697;22;20670;-81
2022/10/27 00:23:49;;;;;;;44.67;24.63;;;8.00;99.90;;;;;;6281418;22;20178;-81
2022/10/27 00:26:18;;;;;;;48.10;25.80;;;8.00;99.90;;;;;;6310224;22;20539;-80
2022/10/27 00:28:45;;;;;;;48.00;25.30;;;8.00;99.90;;;;;;6308439;22;20168;-81
2022/10/27 00:31:19;;;;;;;49.73;26.60;;;8.00;99.90;;;;;;6308074;22;20542;-80
2022/10/27 00:33:47;;;;;;;47.27;25.73;;;8.00;99.90;;;;;;6307988;22;20169;-82
2022/10/27 00:36:17;;;;;;;53.57;26.17;;;7.90;99.90;;;;;;6280794;22;20608;-81
2022/10/27 00:38:45;;;;;;;51.90;25.83;;;7.90;99.90;;;;;;6280618;22;20632;-81
2022/10/27 00:41:27;;;;;;;49.60;25.67;;;7.80;99.90;;;;;;6281153;22;20175;-81
2022/10/27 00:43:57;;;;;;;51.13;25.53;;;7.80;99.90;;;;;;6307728;22;20218;-81
2022/10/27 00:46:39;;;;;;;50.40;27.00;;;7.80;99.90;;;;;;6280830;22;20199;-82
2022/10/27 00:49:17;;;;;;;50.53;26.33;;;7.70;99.90;;;;;;6308399;22;20220;-81
2022/10/27 00:51:50;;;;;;;54.33;27.73;;;7.70;99.90;;;;;;6281243;22;20205;-78
2022/10/27 00:54:19;;;;;;;52.53;26.27;;;7.70;99.90;;;;;;6279873;22;20200;-80
2022/10/27 00:56:48;;;;;;;50.60;25.03;;;7.60;99.90;;;;;;6308386;22;20179;-82
2022/10/27 00:59:16;;;;;;;49.83;25.93;;;7.60;99.90;;;;;;6281746;22;20199;-80
2022/10/27 01:01:45;;;;;;;51.67;25.90;;;7.70;99.90;;;;;;6280753;22;20215;-80
2022/10/27 01:04:15;;;;;;;53.33;25.87;;;7.60;99.90;;;;;;6280228;22;20180;-78
2022/10/27 01:06:42;;;;;;;50.07;25.73;;;7.60;99.90;;;;;;6308066;22;20164;-79
2022/10/27 01:09:11;;;;;;;49.40;25.87;;;7.60;99.90;;;;;;6307960;22;20514;-81
2022/10/27 01:11:39;;;;;;;50.07;25.77;;;7.50;99.90;;;;;;6280498;22;20238;-80
2022/10/27 01:14:07;;;;;;;50.43;25.07;;;7.60;99.90;;;;;;6280147;22;20171;-80
2022/10/27 01:17:03;;;;;;;53.77;26.47;;;7.50;99.90;;;;;;6280370;22;20167;-79
2022/10/27 01:19:51;;;;;;;47.70;25.00;;;7.50;99.90;;;;;;6280119;22;20204;-80
2022/10/27 01:22:34;;;;;;;54.60;25.90;;;7.50;99.90;;;;;;6280550;22;20172;-80
2022/10/27 01:25:18;;;;;;;50.53;25.10;;;7.40;99.90;;;;;;6307871;22;20536;-80
2022/10/27 01:28:24;;;;;;;50.80;25.70;;;7.50;99.90;;;;;;6307742;22;20311;-80
2022/10/27 01:31:03;;;;;;;50.53;25.40;;;7.50;99.90;;;;;;6244021;23;20558;-80
2022/10/27 01:33:58;;;;;;;50.23;25.20;;;7.50;99.90;;;;;;6243606;23;20246;-79
2022/10/27 01:36:44;;;;;;;52.13;25.80;;;7.40;99.90;;;;;;6223149;23;20267;-80
2022/10/27 01:39:26;;;;;;;47.30;24.10;;;7.40;99.90;;;;;;6243204;23;20200;-79
2022/10/27 01:42:08;;;;;;;49.30;25.03;;;7.40;99.90;;;;;;6218090;23;20171;-80
2022/10/27 01:44:46;;;;;;;49.47;25.03;;;7.50;99.90;;;;;;6243744;23;20614;-80
2022/10/27 01:47:15;;;;;;;52.57;25.23;;;7.50;99.90;;;;;;6217789;23;20176;-80
2022/10/27 01:49:42;;;;;;;51.40;24.60;;;7.40;99.90;;;;;;6218054;23;20645;-80
2022/10/27 01:52:40;;;;;;;47.57;23.83;;;7.50;99.90;;;;;;6218430;23;20166;-80
2022/10/27 01:55:13;;;;;;;45.13;23.90;;;7.50;99.90;;;;;;6243657;23;20174;-80
2022/10/27 01:58:11;;;;;;;46.07;24.00;;;7.50;99.90;;;;;;6218822;23;20280;-79
2022/10/27 02:00:58;;;;;;;49.07;23.13;;;7.50;99.90;;;;;;6219034;23;20207;-80
2022/10/27 02:04:00;;;;;;;45.87;23.10;;;7.50;99.90;;;;;;6213122;23;20201;-81
2022/10/27 02:06:57;;;;;;;43.30;23.10;;;7.50;99.90;;;;;;6187619;23;20184;-78
2022/10/27 02:09:29;;;;;;;45.20;22.37;;;7.50;99.90;;;;;;6217969;23;20220;-80
2022/10/27 02:12:00;;;;;;;41.67;22.47;;;7.50;99.90;;;;;;6243838;23;20203;-80
2022/10/27 02:14:27;;;;;;;43.10;22.67;;;7.50;99.90;;;;;;6244388;23;20641;-81
2022/10/27 02:16:56;;;;;;;42.30;22.63;;;7.40;99.90;;;;;;6245623;23;20249;-81
2022/10/27 02:19:36;;;;;;;41.60;21.93;;;7.40;99.90;;;;;;6219930;23;20202;-80
2022/10/27 02:22:04;;;;;;;42.37;21.73;;;7.40;99.90;;;;;;6246102;23;20169;-81
2022/10/27 02:24:31;;;;;;;40.10;22.60;;;7.40;99.90;;;;;;6219941;23;20213;-79
2022/10/27 02:27:38;;;;;;;40.73;21.23;;;7.40;99.90;;;;;;6220651;23;20257;-80
2022/10/27 02:30:06;;;;;;;39.33;21.57;;;7.30;99.90;;;;;;6246126;23;20200;-79
2022/10/27 02:32:34;;;;;;;37.53;21.40;;;7.20;99.90;;;;;;6220505;23;20185;-80
2022/10/27 02:35:04;;;;;;;40.17;21.80;;;7.20;99.90;;;;;;6245878;23;20180;-80
2022/10/27 02:37:36;;;;;;;38.47;21.17;;;7.20;99.90;;;;;;6220330;23;20163;-79
2022/10/27 02:40:04;;;;;;;39.63;21.47;;;7.10;99.90;;;;;;6238135;22;20273;-80
2022/10/27 02:42:31;;;;;;;36.47;20.13;;;7.00;99.90;;;;;;6282288;22;20209;-79
2022/10/27 02:44:58;;;;;;;39.37;20.37;;;7.00;99.90;;;;;;6282444;22;20169;-80
2022/10/27 02:47:25;;;;;;;39.40;21.07;;;7.00;99.90;;;;;;6309789;22;20165;-81
2022/10/27 02:49:52;;;;;;;39.40;20.53;;;7.10;99.90;;;;;;6282542;22;20164;-81
2022/10/27 02:52:19;;;;;;;36.57;20.93;;;7.10;99.90;;;;;;6282372;22;20172;-81
2022/10/27 02:54:47;;;;;;;36.97;19.70;;;7.00;99.90;;;;;;6281103;22;20269;-81
2022/10/27 02:57:15;;;;;;;37.67;20.27;;;7.00;99.90;;;;;;6282050;22;20171;-80
2022/10/27 02:59:42;;;;;;;37.43;20.47;;;7.10;99.90;;;;;;6309290;22;20187;-81
2022/10/27 03:02:10;;;;;;;34.03;18.93;;;7.10;99.90;;;;;;6281268;22;20242;-80
2022/10/27 03:04:37;;;;;;;35.30;19.40;;;7.10;99.90;;;;;;6308785;22;20161;-81
2022/10/27 03:07:04;;;;;;;35.13;18.87;;;7.00;99.90;;;;;;6281482;22;20164;-80
2022/10/27 03:09:31;;;;;;;33.67;18.83;;;7.00;99.90;;;;;;6281119;22;20211;-80
2022/10/27 03:11:58;;;;;;;34.20;19.33;;;6.90;99.90;;;;;;6282408;22;20168;-80
2022/10/27 03:14:26;;;;;;;34.33;19.37;;;6.90;99.90;;;;;;6282821;22;20230;-81
2022/10/27 03:16:53;;;;;;;33.33;19.33;;;7.00;99.90;;;;;;6282505;22;20200;-80
2022/10/27 03:19:19;;;;;;;32.77;18.13;;;7.10;99.90;;;;;;6309381;22;20266;-80
2022/10/27 03:21:46;;;;;;;29.43;17.27;;;7.10;99.90;;;;;;6281940;22;20605;-80
2022/10/27 03:24:13;;;;;;;33.57;18.03;;;7.00;99.90;;;;;;6281528;22;20339;-82
2022/10/27 03:26:40;;;;;;;31.23;18.23;;;7.00;99.90;;;;;;6281716;22;20163;-82
2022/10/27 03:29:07;;;;;;;33.73;18.73;;;6.90;99.90;;;;;;6309645;22;20198;-82
2022/10/27 03:31:34;;;;;;;30.70;17.53;;;6.90;99.90;;;;;;6281660;22;20178;-82
2022/10/27 03:34:01;;;;;;;31.93;18.13;;;6.90;99.90;;;;;;6307452;22;20216;-83
2022/10/27 03:36:28;;;;;;;31.07;17.67;;;6.90;99.90;;;;;;6281698;22;20175;-81
2022/10/27 03:38:55;;;;;;;33.20;17.63;;;6.90;99.90;;;;;;6308702;22;20178;-80
2022/10/27 03:41:22;;;;;;;27.83;17.70;;;6.90;99.90;;;;;;6281516;22;20561;-80
2022/10/27 03:43:49;;;;;;;30.47;17.80;;;6.90;99.90;;;;;;6309186;22;20163;-81
2022/10/27 03:46:16;;;;;;;30.03;17.93;;;6.80;99.90;;;;;;6281432;22;20178;-79
2022/10/27 03:48:43;;;;;;;27.23;16.80;;;6.90;99.90;;;;;;6308716;22;20231;-79
2022/10/27 03:51:10;;;;;;;29.50;17.67;;;6.80;99.90;;;;;;6281271;22;20164;-80
2022/10/27 03:53:37;;;;;;;29.40;17.77;;;6.90;99.90;;;;;;6281738;22;20172;-80
2022/10/27 03:56:04;;;;;;;30.80;18.50;;;6.80;99.90;;;;;;6306908;22;20178;-82
2022/10/27 03:58:31;;;;;;;29.23;18.20;;;6.90;99.90;;;;;;6306930;22;20191;-79
2022/10/27 04:01:03;;;;;;;27.10;17.87;;;6.90;99.90;;;;;;6281385;22;20186;-79
2022/10/27 04:03:31;;;;;;;29.33;18.17;;;6.90;99.90;;;;;;6281342;22;20188;-80
2022/10/27 04:05:58;;;;;;;29.73;17.80;;;6.90;99.90;;;;;;6281384;22;20165;-78
2022/10/27 04:08:26;;;;;;;31.90;18.13;;;6.90;99.90;;;;;;6308061;22;20182;-80
2022/10/27 04:10:53;;;;;;;30.67;18.83;;;6.80;99.90;;;;;;6307285;22;20173;-80
2022/10/27 04:13:20;;;;;;;31.03;18.13;;;6.80;99.90;;;;;;6281359;22;20168;-79
2022/10/27 04:15:46;;;;;;;29.17;17.87;;;6.70;99.90;;;;;;6280844;22;20165;-79
2022/10/27 04:18:13;;;;;;;30.13;18.30;;;6.60;99.90;;;;;;6280639;22;20232;-79
2022/10/27 04:20:40;;;;;;;28.53;18.33;;;6.60;99.90;;;;;;6280522;22;20186;-80
2022/10/27 04:23:08;;;;;;;29.27;18.20;;;6.60;99.90;;;;;;6308446;22;20333;-79
2022/10/27 04:25:35;;;;;;;29.10;17.70;;;6.60;99.90;;;;;;6280765;22;20668;-80
2022/10/27 04:28:07;;;;;;;27.80;18.20;;;6.60;99.90;;;;;;6281320;22;20180;-79
2022/10/27 04:30:34;;;;;;;29.27;18.70;;;6.50;99.90;;;;;;6281016;22;20177;-80
2022/10/27 04:33:01;;;;;;;29.37;18.07;;;6.50;99.90;;;;;;6281396;22;20238;-79
2022/10/27 04:35:28;;;;;;;32.77;18.13;;;6.60;99.90;;;;;;6307756;22;20490;-79
2022/10/27 04:37:56;;;;;;;31.67;18.03;;;6.70;99.90;;;;;;6308682;22;20164;-79
2022/10/27 04:40:23;;;;;;;28.00;17.57;;;6.70;99.90;;;;;;6307635;22;20238;-80
2022/10/27 04:42:50;;;;;;;28.50;17.90;;;6.60;99.90;;;;;;6281351;22;20528;-79
2022/10/27 04:45:17;;;;;;;28.27;17.73;;;6.50;99.90;;;;;;6280310;22;20174;-78
2022/10/27 04:47:44;;;;;;;28.40;18.23;;;6.50;99.90;;;;;;6307982;22;20554;-80
2022/10/27 04:50:13;;;;;;;31.30;18.17;;;6.40;99.90;;;;;;6280231;22;20169;-80
2022/10/27 04:52:40;;;;;;;28.83;18.47;;;6.50;99.90;;;;;;6280060;22;20192;-80
2022/10/27 04:55:10;;;;;;;27.80;17.50;;;6.60;99.90;;;;;;6280146;22;20195;-80
2022/10/27 04:57:37;;;;;;;27.73;17.83;;;6.50;99.90;;;;;;6280868;22;20168;-79
2022/10/27 05:00:05;;;;;;;27.27;17.87;;;6.60;99.90;;;;;;6308730;22;20188;-80
2022/10/27 05:02:31;;;;;;;31.57;18.57;;;6.60;99.90;;;;;;6280980;22;20189;-81
2022/10/27 05:05:05;;;;;;;28.10;17.93;;;6.50;99.90;;;;;;6280014;22;20170;-81
2022/10/27 05:07:32;;;;;;;28.37;17.17;;;6.60;99.90;;;;;;6279967;22;20157;-80
2022/10/27 05:09:58;;;;;;;29.27;18.17;;;6.60;99.90;;;;;;6274787;22;20275;-78
2022/10/27 05:12:25;;;;;;;28.00;17.40;;;6.60;99.90;;;;;;6276268;22;20294;-81
2022/10/27 05:14:52;;;;;;;27.57;17.57;;;6.60;99.90;;;;;;6274634;22;20174;-80
2022/10/27 05:17:19;;;;;;;26.57;17.10;;;6.60;99.90;;;;;;6275292;22;20171;-81
2022/10/27 05:19:52;;;;;;;28.70;17.87;;;6.70;99.90;;;;;;6274656;22;20569;-80
2022/10/27 05:22:19;;;;;;;26.57;17.47;;;6.60;99.90;;;;;;6274745;22;20170;-81
2022/10/27 05:24:46;;;;;;;32.50;20.27;;;6.70;99.90;;;;;;6274516;22;20271;-81
2022/10/27 05:27:13;;;;;;;30.27;19.30;;;6.70;99.90;;;;;;6300521;22;20248;-80
2022/10/27 05:29:40;;;;;;;27.07;17.97;;;6.70;99.90;;;;;;6275550;22;20175;-80
2022/10/27 05:32:08;;;;;;;27.10;17.40;;;6.60;99.90;;;;;;6274878;22;20186;-79
2022/10/27 05:34:35;;;;;;;26.80;17.83;;;6.50;99.90;;;;;;6274173;22;20174;-78
2022/10/27 05:37:02;;;;;;;29.33;18.10;;;6.50;99.90;;;;;;6274841;22;20168;-79
2022/10/27 05:39:28;;;;;;;27.50;17.57;;;6.60;99.90;;;;;;6274549;22;20257;-79
2022/10/27 05:41:56;;;;;;;26.87;17.13;;;6.50;99.90;;;;;;6275270;22;20593;-78
2022/10/27 05:44:23;;;;;;;30.23;18.50;;;6.60;99.90;;;;;;6274026;22;20501;-78
2022/10/27 05:46:50;;;;;;;26.43;17.37;;;6.50;99.90;;;;;;6274370;22;20259;-79
2022/10/27 05:49:17;;;;;;;25.60;16.87;;;6.50;99.90;;;;;;6274486;22;20247;-78
2022/10/27 05:51:50;;;;;;;27.43;17.30;;;6.50;99.90;;;;;;6275866;22;20464;-79
2022/10/27 05:54:18;;;;;;;27.60;17.00;;;6.50;99.90;;;;;;6276356;22;20500;-80
2022/10/27 05:56:54;;;;;;;26.37;16.93;;;6.50;99.90;;;;;;6276285;22;20217;-80
2022/10/27 05:59:25;;;;;;;29.07;17.90;;;6.50;99.90;;;;;;6276262;22;20389;-79
2022/10/27 06:01:54;;;;;;;30.13;17.40;;;6.50;99.90;;;;;;6275788;22;20199;-79
2022/10/27 06:04:27;;;;;;;30.17;18.60;;;6.50;99.90;;;;;;6278043;22;20270;-79
2022/10/27 06:06:57;;;;;;;30.33;18.67;;;6.50;99.90;;;;;;6275492;22;20208;-80
2022/10/27 06:09:40;;;;;;;32.43;18.47;;;6.60;99.90;;;;;;6287583;22;20233;-78
2022/10/27 06:12:10;;;;;;;31.60;19.43;;;6.60;99.90;;;;;;6245682;23;20173;-79
2022/10/27 06:14:47;;;;;;;30.47;18.77;;;6.70;99.90;;;;;;6271868;22;20160;-80
2022/10/27 06:17:17;;;;;;;33.20;20.80;;;6.80;99.90;;;;;;6271534;22;20172;-81
2022/10/27 06:19:43;;;;;;;35.13;19.50;;;6.90;99.90;;;;;;6247460;23;20189;-74
2022/10/27 06:22:10;;;;;;;30.57;18.97;;;7.10;99.90;;;;;;6246342;23;20267;-74
2022/10/27 06:24:42;;;;;;;33.87;19.80;;;7.20;99.90;;;;;;6242817;23;20203;-72
2022/10/27 06:27:09;;;;;;;31.63;19.63;;;7.30;99.90;;;;;;6244830;23;20169;-74
2022/10/27 06:29:36;;;;;;;33.50;19.77;;;7.40;99.90;;;;;;6271172;22;20465;-73
2022/10/27 06:32:03;;;;;;;31.87;20.43;;;7.50;99.90;;;;;;6245281;23;20176;-75
2022/10/27 06:34:30;;;;;;;33.07;20.43;;;7.70;99.90;;;;;;6270834;22;20265;-72
2022/10/27 06:36:57;;;;;;;31.80;20.80;;;7.80;99.90;;;;;;6246897;23;20200;-74
2022/10/27 06:39:24;;;;;;;34.47;21.03;;;7.90;99.90;;;;;;6270713;22;20608;-75
2022/10/27 06:41:51;;;;;;;31.33;20.23;;;8.10;99.90;;;;;;6245284;23;20264;-75
2022/10/27 06:44:18;;;;;;;32.13;20.47;;;8.20;99.90;;;;;;6247153;23;20212;-76
2022/10/27 06:46:45;;;;;;;33.60;20.33;;;8.30;99.90;;;;;;6270931;22;20190;-74
2022/10/27 06:49:12;;;;;;;33.57;20.47;;;8.40;99.90;;;;;;6270939;22;20178;-85
2022/10/27 06:51:47;;;;;;;28.40;19.47;;;8.40;99.90;;;;;;6245158;23;20170;-77
2022/10/27 06:54:14;;;;;;;30.70;20.37;;;8.50;99.90;;;;;;6219541;23;20212;-72
2022/10/27 06:56:41;;;;;;;30.70;20.23;;;8.60;99.90;;;;;;6244991;23;20267;-77
2022/10/27 06:59:08;;;;;;;30.70;19.90;;;8.70;99.90;;;;;;6246830;23;20241;-81
2022/10/27 07:01:35;;;;;;;30.17;19.83;;;8.80;99.90;;;;;;6269713;22;20186;-74
2022/10/27 07:04:02;;;;;;;30.57;19.43;;;8.90;99.90;;;;;;6241162;22;20501;-77
2022/10/27 07:06:31;;;;;;;30.13;20.00;;;9.00;99.90;;;;;;6270916;22;20162;-76
2022/10/27 07:08:58;;;;;;;33.43;19.57;;;9.10;99.90;;;;;;6247057;22;20177;-79
2022/10/27 07:11:27;;;;;;;27.77;18.67;;;9.20;99.90;;;;;;6281108;22;20176;-81
2022/10/27 07:13:55;;;;;;;30.13;19.00;;;9.30;99.90;;;;;;6284193;22;20634;-80
2022/10/27 07:16:22;;;;;;;29.37;19.57;;;9.40;99.90;;;;;;6283064;22;20183;-77
2022/10/27 07:18:48;;;;;;;30.30;19.03;;;9.50;99.90;;;;;;6281153;22;20171;-81
2022/10/27 07:21:15;;;;;;;31.07;19.13;;;9.60;99.90;;;;;;6308215;22;20185;-72
2022/10/27 07:23:43;;;;;;;26.60;18.03;;;9.70;99.90;;;;;;6280439;22;20577;-80
2022/10/27 07:26:10;;;;;;;32.10;19.50;;;9.70;99.90;;;;;;6279741;22;20181;-72
2022/10/27 07:28:37;;;;;;;29.90;19.90;;;9.90;99.90;;;;;;6280492;22;20203;-73
2022/10/27 07:31:04;;;;;;;31.47;19.17;;;10.00;99.90;;;;;;6308418;22;20181;-74
2022/10/27 07:33:31;;;;;;;27.83;18.10;;;10.20;99.90;;;;;;6280632;22;20169;-73
2022/10/27 07:35:58;;;;;;;28.17;18.43;;;10.40;99.90;;;;;;6280551;22;20179;-74
2022/10/27 07:38:25;;;;;;;29.00;18.13;;;10.60;99.90;;;;;;6280311;22;20598;-77
2022/10/27 07:40:52;;;;;;;27.67;17.30;;;10.70;99.90;;;;;;6280630;22;20200;-74
2022/10/27 07:43:18;;;;;;;24.67;16.87;;;10.80;99.90;;;;;;6306747;22;20165;-76
2022/10/27 07:45:46;;;;;;;27.53;16.67;;;11.00;99.90;;;;;;6307534;22;20169;-74
2022/10/27 07:48:15;;;;;;;27.87;16.83;;;11.20;99.90;;;;;;6281058;22;20662;-76
2022/10/27 07:50:43;;;;;;;24.63;16.70;;;11.30;99.90;;;;;;6306622;22;20169;-75
2022/10/27 07:53:11;;;;;;;25.87;16.20;;;11.40;99.90;;;;;;6280684;22;20508;-80
2022/10/27 07:55:38;;;;;;;28.20;16.80;;;11.40;99.90;;;;;;6306808;22;20587;-76
2022/10/27 07:58:08;;;;;;;24.90;15.97;;;11.50;99.90;;;;;;6308257;22;20172;-77
2022/10/27 08:00:44;;;;;;;25.73;16.70;;;11.80;99.90;;;;;;6307512;22;20192;-77
2022/10/27 08:03:16;;;;;;;23.33;15.87;;;12.30;99.90;;;;;;6280458;22;20228;-82
2022/10/27 08:05:43;;;;;;;23.93;16.90;;;12.90;99.90;;;;;;6280414;22;20212;-86
2022/10/27 08:08:11;;;;;;;24.43;15.50;;;13.20;99.90;;;;;;6280408;22;20606;-86
2022/10/27 08:10:39;;;;;;;25.73;15.23;;;13.50;99.90;;;;;;6307741;22;20200;-87
2022/10/27 08:13:07;;;;;;;22.67;15.20;;;13.90;99.90;;;;;;6306162;22;20231;-85
2022/10/27 08:15:36;;;;;;;25.47;15.73;;;14.20;99.90;;;;;;6280357;22;20172;-85
2022/10/27 08:18:03;;;;;;;21.60;14.73;;;14.50;99.90;;;;;;6281013;22;20168;-81
2022/10/27 08:20:32;;;;;;;22.67;14.83;;;14.60;99.90;;;;;;6280598;22;20189;-89
2022/10/27 08:23:01;;;;;;;28.07;15.57;;;14.60;99.90;;;;;;6308050;22;20236;-91
2022/10/27 08:25:29;;;;;;;22.33;15.37;;;14.70;99.90;;;;;;6280445;22;20260;-82
2022/10/27 08:27:57;;;;;;;25.60;15.17;;;14.90;99.90;;;;;;6307891;22;20215;-87
2022/10/27 08:30:26;;;;;;;26.30;15.60;;;15.10;99.90;;;;;;6308068;22;20252;-87
2022/10/27 08:32:59;;;;;;;23.33;15.50;;;15.30;99.90;;;;;;6282149;22;20173;-83
2022/10/27 08:35:33;;;;;;;22.67;14.47;;;15.50;99.90;;;;;;6281668;22;20638;-82
2022/10/27 08:38:20;;;;;;;26.83;15.70;;;15.70;99.90;;;;;;6283238;22;20169;-89
2022/10/27 08:41:22;;;;;;;26.43;15.30;;;16.00;99.90;;;;;;6288106;22;20189;-86
2022/10/27 08:44:09;;;;;;;20.77;14.90;;;16.50;99.90;;;;;;6306590;22;20168;-85
2022/10/27 08:46:50;;;;;;;19.97;14.37;;;16.90;99.90;;;;;;6307640;22;20173;-86
2022/10/27 08:49:35;;;;;;;24.57;14.90;;;17.30;99.90;;;;;;6255388;22;20165;-81
2022/10/27 08:52:31;;;;;;;22.53;14.80;;;17.30;99.90;;;;;;6306124;22;20172;-82
2022/10/27 08:55:22;;;;;;;21.80;14.73;;;17.60;99.90;;;;;;6300234;22;20175;-84
2022/10/27 08:58:10;;;;;;;20.33;13.80;;;18.00;99.90;;;;;;6305161;22;20168;-73
2022/10/27 09:00:50;;;;;;;19.47;14.00;;;18.20;99.90;;;;;;6279897;22;20226;-80
2022/10/27 09:03:35;;;;;;;21.67;13.60;;;18.50;99.90;;;;;;6307015;22;20168;-75
2022/10/27 09:06:25;;;;;;;23.33;14.70;;;18.80;99.90;;;;;;6279255;22;20196;-75
2022/10/27 09:09:20;;;;;;;22.97;13.77;;;19.10;99.90;;;;;;6279859;22;20169;-73
2022/10/27 09:12:16;;;;;;;22.53;14.63;;;19.30;99.90;;;;;;6307264;22;20176;-73
2022/10/27 09:15:01;;;;;;;22.50;13.87;;;19.40;99.90;;;;;;6279740;22;20611;-74
2022/10/27 09:17:44;;;;;;;26.97;14.10;;;19.50;99.90;;;;;;6305488;22;20245;-76
2022/10/27 09:20:21;;;;;;;22.00;13.93;;;19.90;99.90;;;;;;6279754;22;20169;-76
2022/10/27 09:22:52;;;;;;;20.67;13.97;;;20.10;99.90;;;;;;6306886;22;20164;-77
2022/10/27 09:25:23;;;;;;;24.73;14.17;;;20.20;99.90;;;;;;6279407;22;20160;-77
2022/10/27 09:27:55;;;;;;;22.60;14.40;;;20.50;99.90;;;;;;6279704;22;20196;-76
2022/10/27 09:30:23;;;;;;;21.30;12.87;;;20.70;99.90;;;;;;6305574;22;20168;-77
2022/10/27 09:32:55;;;;;;;19.97;13.30;;;20.90;99.90;;;;;;6305358;22;20173;-77
2022/10/27 09:35:24;;;;;;;18.30;12.77;;;21.00;99.90;;;;;;6305018;22;20168;-76
2022/10/27 09:37:55;;;;;;;18.97;12.90;;;21.30;99.90;;;;;;6306140;22;20220;-76
2022/10/27 09:40:24;;;;;;;18.67;12.30;;;21.30;99.90;;;;;;6280402;22;20200;-79
2022/10/27 09:42:54;;;;;;;19.87;12.23;;;21.50;99.90;;;;;;6307575;22;20635;-77
2022/10/27 09:45:26;;;;;;;20.27;12.97;;;21.70;99.90;;;;;;6279776;22;20169;-75
2022/10/27 09:47:59;;;;;;;22.23;12.73;;;21.60;99.90;;;;;;6280382;22;20195;-76
2022/10/27 09:50:35;;;;;;;18.30;11.90;;;21.70;99.90;;;;;;6279681;22;20169;-76
2022/10/27 09:53:46;;;;;;;16.43;12.13;;;21.90;99.90;;;;;;6306170;22;20274;-76
2022/10/27 09:56:35;;;;;;;19.13;12.37;;;21.70;99.90;;;;;;6279786;22;20599;-79
2022/10/27 10:02:39;;;;;;;18.63;11.90;;;22.20;99.90;;;;;;6307843;22;20196;-77
2022/10/27 10:05:19;;;;;;;18.43;12.03;;;22.20;99.90;;;;;;6279443;22;20215;-77
2022/10/27 10:07:46;;;;;;;18.53;12.17;;;22.30;99.90;;;;;;6307223;22;20204;-77
2022/10/27 10:10:25;;;;;;;19.53;11.87;;;22.80;99.90;;;;;;6280055;22;20227;-75
2022/10/27 10:13:02;;;;;;;22.33;11.60;;;23.10;99.90;;;;;;6280253;22;20165;-76
2022/10/27 10:15:31;;;;;;;18.13;11.07;;;23.20;99.90;;;;;;6281170;22;20183;-76
2022/10/27 10:18:01;;;;;;;17.20;10.73;;;23.20;99.90;;;;;;6279708;22;20173;-76
2022/10/27 10:20:35;;;;;;;14.93;10.23;;;23.10;99.90;;;;;;6305477;22;20173;-75
2022/10/27 10:23:26;;;;;;;14.90;10.50;;;23.40;99.90;;;;;;6279738;22;20168;-80
2022/10/27 10:25:59;;;;;;;16.60;10.73;;;23.80;99.90;;;;;;6254064;22;20169;-77
2022/10/27 10:28:36;;;;;;;16.30;10.20;;;23.70;99.90;;;;;;6305606;22;20541;-75
2022/10/27 10:31:14;;;;;;;15.97;11.17;;;24.10;99.90;;;;;;6307189;22;20192;-77
2022/10/27 10:33:46;;;;;;;17.23;10.97;;;23.90;99.90;;;;;;6279226;22;20659;-76
2022/10/27 10:36:26;;;;;;;15.60;10.67;;;24.00;99.90;;;;;;6279595;22;20172;-79
2022/10/27 10:38:58;;;;;;;19.23;11.43;;;24.20;99.90;;;;;;6281372;22;20165;-77
2022/10/27 10:41:29;;;;;;;20.83;11.67;;;23.80;99.90;;;;;;6281175;22;20193;-78
2022/10/27 10:44:16;;;;;;;19.30;11.43;;;23.50;99.90;;;;;;6281070;22;20157;-78
2022/10/27 10:46:56;;;;;;;19.37;10.87;;;23.40;99.90;;;;;;6281115;22;20199;-79
2022/10/27 10:49:27;;;;;;;17.10;10.60;;;23.50;99.90;;;;;;6308230;22;20191;-79
2022/10/27 10:51:58;;;;;;;16.43;10.67;;;23.80;99.90;;;;;;6281203;22;20161;-78
2022/10/27 10:54:44;;;;;;;18.53;10.70;;;23.90;99.90;;;;;;6281339;22;20488;-89
2022/10/27 10:57:35;;;;;;;17.57;10.63;;;24.00;99.90;;;;;;6281429;22;20602;-78
2022/10/27 11:00:05;;;;;;;16.73;10.53;;;23.90;99.90;;;;;;6308637;22;20492;-80
2022/10/27 11:02:42;;;;;;;15.50;10.27;;;24.20;99.90;;;;;;6281264;22;20189;-78
2022/10/27 11:05:22;;;;;;;14.87;10.10;;;24.30;99.90;;;;;;6306753;22;20165;-77
2022/10/27 11:16:01;;;;;;;14.00;9.32;;;25.20;99.90;;;;;;6284194;22;20206;-84
2022/10/27 11:18:44;;;;;;;11.50;8.15;;;25.40;99.90;;;;;;6283913;22;20204;-81
2022/10/27 11:21:22;;;;;;;14.00;8.82;;;25.60;99.90;;;;;;6311312;22;20176;-79
2022/10/27 11:24:04;;;;;;;12.20;7.95;;;25.70;99.90;;;;;;6313194;22;20188;-82
2022/10/27 11:26:42;;;;;;;12.23;8.07;;;26.40;99.90;;;;;;6283580;22;20520;-87
2022/10/27 11:56:26;;;;;;;7.30;4.40;;;27.00;97.20;;;;;;6241046;22;20264;-87
2022/10/27 11:59:11;;;;;;;8.88;4.35;;;26.60;97.60;;;;;;6255155;22;20172;-92
2022/10/27 12:02:21;;;;;;;8.63;4.80;;;27.00;97.10;;;;;;6279653;22;20690;-94
2022/10/27 12:05:01;;;;;;;9.75;4.65;;;27.90;96.00;;;;;;6194621;23;20171;-88
2022/10/27 12:08:13;;;;;;;7.20;4.38;;;28.00;94.70;;;;;;6184464;23;20195;-92
2022/10/27 12:10:51;;;;;;;8.05;4.63;;;28.10;94.50;;;;;;6102379;23;20181;-95
2022/10/27 12:13:26;;;;;;;5.88;3.97;;;28.30;93.50;;;;;;6098207;23;20173;-96
2022/10/27 12:16:04;;;;;;;9.52;4.70;;;28.40;93.10;;;;;;6104331;23;20177;-92
2022/10/27 12:18:52;;;;;;;6.95;4.40;;;28.90;91.40;;;;;;6108454;23;20259;-87
2022/10/27 12:57:00;;;;;;;8.80;5.88;;;26.10;93.40;;;;;;6213178;23;20159;-81
2022/10/27 13:00:07;;;;;;;8.85;6.10;;;25.90;93.90;;;;;;6210681;23;20178;-83
2022/10/27 13:09:53;;;;;;;10.95;6.95;;;25.20;95.90;;;;;;6304721;22;20216;-88
2022/10/27 13:12:42;;;;;;;11.30;7.03;;;24.90;96.00;;;;;;6272375;22;20623;-87
2022/10/27 13:15:18;;;;;;;10.05;6.97;;;24.50;97.50;;;;;;6249211;22;20183;-91
2022/10/27 13:18:12;;;;;;;12.93;7.68;;;23.80;98.30;;;;;;6277312;22;20172;-95
2022/10/27 13:20:58;;;;;;;11.90;7.90;;;23.70;98.90;;;;;;6252890;22;20176;-90
2022/10/27 13:23:39;;;;;;;13.40;8.07;;;23.30;99.80;;;;;;6278879;22;20158;-79
2022/10/27 13:26:53;;;;;;;13.57;8.10;;;23.30;99.90;;;;;;6251716;22;20169;-83
2022/10/27 13:30:07;;;;;;;12.40;8.20;;;22.90;99.90;;;;;;6182491;23;20155;-80
2022/10/27 13:32:58;;;;;;;16.07;8.63;;;22.70;99.90;;;;;;6157582;23;20175;-85
2022/10/27 13:35:34;;;;;;;16.83;8.47;;;22.30;99.90;;;;;;6182036;23;20573;-80
2022/10/27 13:38:22;;;;;;;13.03;8.33;;;22.00;99.90;;;;;;6182562;23;20175;-84
2022/10/27 13:40:51;;;;;;;12.13;8.07;;;21.90;99.90;;;;;;6182674;23;20183;-79
2022/10/27 13:43:21;;;;;;;16.73;8.17;;;21.70;99.90;;;;;;6157561;23;20199;-79
2022/10/27 13:45:55;;;;;;;13.27;8.37;;;21.20;99.90;;;;;;6182266;23;20172;-77
2022/10/27 13:48:22;;;;;;;14.60;8.67;;;21.10;99.90;;;;;;6133434;23;20178;-79
2022/10/27 13:50:56;;;;;;;12.70;8.20;;;21.10;99.90;;;;;;6182522;23;20180;-81
2022/10/27 13:53:25;;;;;;;11.93;7.57;;;20.90;99.90;;;;;;6158117;23;20266;-83
2022/10/27 13:55:55;;;;;;;15.63;8.53;;;20.90;99.90;;;;;;6157548;23;20213;-77
2022/10/27 13:58:31;;;;;;;13.33;7.90;;;20.40;99.90;;;;;;6182811;23;20171;-79
2022/10/27 14:01:29;;;;;;;16.37;8.90;;;20.10;99.90;;;;;;6183242;23;20174;-86
2022/10/27 14:04:15;;;;;;;13.53;8.07;;;19.90;99.90;;;;;;6259067;22;20173;-79
2022/10/27 14:06:46;;;;;;;14.70;8.23;;;19.90;99.90;;;;;;6276531;22;20518;-86
2022/10/27 14:09:44;;;;;;;15.77;8.67;;;19.90;99.90;;;;;;6276491;22;20220;-77
2022/10/27 14:12:33;;;;;;;14.67;8.67;;;19.90;99.90;;;;;;6250114;22;20169;-79
2022/10/27 14:15:10;;;;;;;14.60;8.30;;;19.70;99.90;;;;;;6276865;22;20653;-84
2022/10/27 14:17:41;;;;;;;14.87;8.50;;;19.60;99.90;;;;;;6251500;22;20260;-80
2022/10/27 14:20:33;;;;;;;15.37;8.83;;;19.50;99.90;;;;;;6278623;22;20184;-84
2022/10/27 14:23:13;;;;;;;14.87;8.77;;;19.30;99.90;;;;;;6250982;22;20189;-79
2022/10/27 14:25:40;;;;;;;15.43;8.87;;;19.20;99.90;;;;;;6277088;22;20170;-76
2022/10/27 14:28:19;;;;;;;16.03;9.17;;;19.00;99.90;;;;;;6276521;22;20215;-78
2022/10/27 14:31:06;;;;;;;14.47;8.40;;;18.90;99.90;;;;;;6251230;22;20487;-78